Time;durP1;ratioP1;P1;durP2;ratioP2;P2;SDS_P1;SDS_P2;PMS_P1;PMS_P2;Temp;Humidity;BMP_temperature;BMP_pressure;BME280_temperature;BME280_humidity;BME280_pressure;Samples;Min_cycle;Max_cycle;Signal;HPM_P1;HPM_P2
2021/08/13 00:00:12;;;;;;;6.82;3.60;;;24.90;99.90;;;;;;5024772;28;20197;-76
2021/08/13 00:02:39;;;;;;;7.37;3.60;;;24.90;99.90;;;;;;5025346;28;20193;-75
2021/08/13 00:05:10;;;;;;;7.38;3.72;;;24.90;99.90;;;;;;5008474;28;20221;-75
2021/08/13 00:07:36;;;;;;;6.82;3.70;;;24.90;99.90;;;;;;5019996;28;20212;-76
2021/08/13 00:10:04;;;;;;;10.00;4.20;;;24.80;99.90;;;;;;5019969;28;20239;-76
2021/08/13 00:12:31;;;;;;;5.30;3.77;;;24.90;99.90;;;;;;5026340;28;20980;-76
2021/08/13 00:14:59;;;;;;;7.00;3.93;;;24.90;99.90;;;;;;5032634;28;20928;-76
2021/08/13 00:17:26;;;;;;;9.30;3.80;;;24.90;99.90;;;;;;5003485;28;20180;-76
2021/08/13 00:19:54;;;;;;;6.97;4.22;;;24.90;99.90;;;;;;5019116;28;20649;-76
2021/08/13 00:22:21;;;;;;;9.90;4.07;;;24.90;99.90;;;;;;5022025;28;20267;-75
2021/08/13 00:24:48;;;;;;;7.28;4.20;;;24.90;99.90;;;;;;5016790;28;20189;-76
2021/08/13 00:27:14;;;;;;;9.43;4.65;;;24.80;99.90;;;;;;5006303;28;20209;-76
2021/08/13 00:29:42;;;;;;;8.43;4.30;;;24.80;99.90;;;;;;5025225;28;21016;-75
2021/08/13 00:32:08;;;;;;;6.93;4.00;;;24.90;99.90;;;;;;5027012;28;21887;-75
2021/08/13 00:34:34;;;;;;;8.03;3.73;;;24.90;99.90;;;;;;5014191;28;20240;-75
2021/08/13 00:37:01;;;;;;;5.97;3.90;;;24.90;99.90;;;;;;5019875;28;20199;-75
2021/08/13 00:39:27;;;;;;;5.40;3.60;;;24.90;99.90;;;;;;5024374;28;20897;-75
2021/08/13 00:41:53;;;;;;;4.73;3.43;;;24.90;99.90;;;;;;5023404;28;20188;-75
2021/08/13 00:44:19;;;;;;;9.43;3.50;;;24.90;99.90;;;;;;5025014;28;20199;-75
2021/08/13 00:46:46;;;;;;;4.83;3.40;;;24.80;99.90;;;;;;5006940;28;20665;-74
2021/08/13 00:49:12;;;;;;;5.80;3.60;;;24.90;99.90;;;;;;5019931;28;20556;-76
2021/08/13 00:51:39;;;;;;;5.70;3.53;;;24.80;99.90;;;;;;5007455;28;20184;-76
2021/08/13 00:54:05;;;;;;;10.95;4.32;;;24.90;99.90;;;;;;5021540;28;20534;-76
2021/08/13 00:56:31;;;;;;;5.40;3.30;;;24.80;99.90;;;;;;5022301;28;20192;-75
2021/08/13 00:58:59;;;;;;;8.63;3.40;;;24.80;99.90;;;;;;5022783;28;20550;-76
2021/08/13 01:01:25;;;;;;;7.15;3.47;;;24.70;99.90;;;;;;5020259;28;20192;-75
2021/08/13 01:03:52;;;;;;;5.20;4.10;;;24.70;99.90;;;;;;5007753;28;20644;-76
2021/08/13 01:06:19;;;;;;;5.27;4.03;;;24.70;99.90;;;;;;5018759;28;20290;-76
2021/08/13 01:08:46;;;;;;;6.40;3.50;;;24.60;99.90;;;;;;5024000;28;20181;-75
2021/08/13 01:11:44;;;;;;;8.07;4.10;;;24.60;99.90;;;;;;5007489;28;20303;-75
2021/08/13 01:14:22;;;;;;;6.33;3.73;;;24.70;99.90;;;;;;5006134;28;20234;-75
2021/08/13 01:16:53;;;;;;;7.27;3.80;;;24.70;99.90;;;;;;5020906;28;20848;-75
2021/08/13 01:19:41;;;;;;;5.03;3.77;;;24.60;99.90;;;;;;5008865;28;20215;-75
2021/08/13 01:22:16;;;;;;;7.03;3.60;;;24.60;99.90;;;;;;5006794;28;20208;-75
2021/08/13 01:24:47;;;;;;;5.50;3.40;;;24.60;99.90;;;;;;5022022;28;20188;-75
2021/08/13 01:27:33;;;;;;;4.57;3.60;;;24.60;99.90;;;;;;5004270;28;20216;-75
2021/08/13 01:30:11;;;;;;;11.33;3.87;;;24.60;99.90;;;;;;5021857;28;20266;-75
2021/08/13 01:32:39;;;;;;;7.80;3.53;;;24.50;99.90;;;;;;5006964;28;20286;-74
2021/08/13 01:35:38;;;;;;;8.10;3.43;;;24.50;99.90;;;;;;5026091;28;20212;-74
2021/08/13 01:38:14;;;;;;;6.07;3.27;;;24.60;99.90;;;;;;5015483;28;20951;-73
2021/08/13 01:40:47;;;;;;;5.30;3.50;;;24.60;99.90;;;;;;5020241;28;20192;-75
2021/08/13 01:43:17;;;;;;;10.13;3.47;;;24.60;99.90;;;;;;5025503;28;20565;-75
2021/08/13 01:45:45;;;;;;;4.47;3.07;;;24.60;99.90;;;;;;5024944;28;20191;-75
2021/08/13 01:48:12;;;;;;;7.53;3.20;;;24.60;99.90;;;;;;5022975;28;20672;-76
2021/08/13 01:50:41;;;;;;;4.80;2.90;;;24.60;99.90;;;;;;5022138;28;20189;-76
2021/08/13 01:53:09;;;;;;;6.00;3.13;;;24.70;99.90;;;;;;5021353;28;20195;-75
2021/08/13 01:55:36;;;;;;;4.60;3.17;;;24.60;99.90;;;;;;5024802;28;20227;-76
2021/08/13 01:58:03;;;;;;;5.22;3.47;;;24.60;99.90;;;;;;5008732;28;20196;-76
2021/08/13 02:00:31;;;;;;;6.63;3.47;;;24.60;99.90;;;;;;5025594;28;20567;-76
2021/08/13 02:03:00;;;;;;;3.73;2.87;;;24.60;99.90;;;;;;5032383;28;20191;-76
2021/08/13 02:05:33;;;;;;;6.03;3.20;;;24.50;99.90;;;;;;5010598;28;20184;-76
2021/08/13 02:08:05;;;;;;;6.10;3.20;;;24.50;99.90;;;;;;5018809;28;20204;-75
2021/08/13 02:10:36;;;;;;;5.17;3.20;;;24.40;99.90;;;;;;5031168;28;20525;-76
2021/08/13 02:13:05;;;;;;;6.30;3.37;;;24.40;99.90;;;;;;5026746;28;20234;-76
2021/08/13 02:15:36;;;;;;;8.23;2.83;;;24.30;99.90;;;;;;5030513;28;20191;-76
2021/08/13 02:18:20;;;;;;;13.13;3.20;;;24.30;99.90;;;;;;5022458;28;20627;-75
2021/08/13 02:20:53;;;;;;;5.13;2.93;;;24.20;99.90;;;;;;5026781;28;20195;-76
2021/08/13 02:23:19;;;;;;;6.50;2.90;;;24.10;99.90;;;;;;5022697;28;20647;-76
2021/08/13 02:25:48;;;;;;;7.63;3.40;;;24.10;99.90;;;;;;5034164;28;20190;-76
2021/08/13 02:28:16;;;;;;;6.87;3.23;;;24.20;99.90;;;;;;5010311;28;20184;-76
2021/08/13 02:30:43;;;;;;;6.63;3.30;;;24.20;99.90;;;;;;5023489;28;20255;-76
2021/08/13 02:33:10;;;;;;;4.40;3.00;;;24.20;99.90;;;;;;5032324;28;20196;-76
2021/08/13 02:35:37;;;;;;;3.77;3.07;;;24.20;99.90;;;;;;5007478;28;20177;-76
2021/08/13 02:38:24;;;;;;;6.63;3.03;;;24.20;99.90;;;;;;5005408;28;20295;-76
2021/08/13 02:41:01;;;;;;;6.80;3.10;;;24.20;99.90;;;;;;5022010;28;20518;-75
2021/08/13 02:43:44;;;;;;;12.73;3.53;;;24.20;99.90;;;;;;5026133;28;20183;-76
2021/08/13 02:46:14;;;;;;;8.03;3.30;;;24.20;99.90;;;;;;5026975;28;20584;-75
2021/08/13 02:48:43;;;;;;;5.80;3.03;;;24.10;99.90;;;;;;5024219;28;20238;-75
2021/08/13 02:51:17;;;;;;;7.50;3.47;;;24.20;99.90;;;;;;5025269;28;20184;-76
2021/08/13 02:53:48;;;;;;;4.87;3.27;;;24.10;99.90;;;;;;5024517;28;20725;-76
2021/08/13 02:56:19;;;;;;;4.13;3.17;;;24.10;99.90;;;;;;5023543;28;20200;-76
2021/08/13 02:58:56;;;;;;;5.23;3.27;;;24.10;99.90;;;;;;5024368;28;20206;-77
2021/08/13 03:01:27;;;;;;;5.70;3.40;;;24.10;99.90;;;;;;5005463;28;20199;-76
2021/08/13 03:03:55;;;;;;;8.53;3.33;;;24.10;99.90;;;;;;5037785;28;20195;-76
2021/08/13 03:06:31;;;;;;;5.30;3.60;;;24.10;99.90;;;;;;5026172;28;20553;-76
2021/08/13 03:09:00;;;;;;;6.10;2.97;;;24.10;99.90;;;;;;5015701;28;20188;-76
2021/08/13 03:11:32;;;;;;;9.47;3.20;;;24.10;99.90;;;;;;5017491;28;20180;-76
2021/08/13 03:13:59;;;;;;;7.20;3.53;;;24.10;99.90;;;;;;5019285;28;20219;-74
2021/08/13 03:16:26;;;;;;;6.33;3.40;;;24.10;99.90;;;;;;5026179;28;20184;-76
2021/08/13 03:18:54;;;;;;;6.27;3.23;;;24.10;99.90;;;;;;5007953;28;20207;-74
2021/08/13 03:21:21;;;;;;;10.07;4.13;;;24.20;99.90;;;;;;5006842;28;20826;-74
2021/08/13 03:23:50;;;;;;;6.30;3.40;;;24.20;99.90;;;;;;5004105;28;20192;-74
2021/08/13 03:26:17;;;;;;;3.83;3.23;;;24.30;99.90;;;;;;5006207;28;20868;-74
2021/08/13 03:28:43;;;;;;;5.97;3.30;;;24.40;99.90;;;;;;5026662;28;20191;-74
2021/08/13 03:31:10;;;;;;;4.83;3.20;;;24.40;99.90;;;;;;5021731;28;20192;-74
2021/08/13 03:33:36;;;;;;;6.67;3.50;;;24.50;99.90;;;;;;5020288;28;20279;-76
2021/08/13 03:36:05;;;;;;;7.53;3.53;;;24.50;99.90;;;;;;5024402;28;20188;-76
2021/08/13 03:38:32;;;;;;;6.13;3.27;;;24.50;99.90;;;;;;5021001;28;20196;-77
2021/08/13 03:40:58;;;;;;;5.47;3.43;;;24.50;99.90;;;;;;5015699;28;20202;-75
2021/08/13 03:43:24;;;;;;;4.50;3.17;;;24.50;99.90;;;;;;5017395;28;20191;-76
2021/08/13 03:45:51;;;;;;;6.43;3.63;;;24.50;99.90;;;;;;5019203;28;20188;-76
2021/08/13 03:48:19;;;;;;;4.63;3.17;;;24.60;99.90;;;;;;5024572;28;20180;-75
2021/08/13 03:50:45;;;;;;;4.67;2.60;;;24.60;99.90;;;;;;5034590;28;20239;-76
2021/08/13 03:53:11;;;;;;;7.00;3.60;;;24.60;99.90;;;;;;5008257;28;20222;-76
2021/08/13 03:55:38;;;;;;;7.27;2.97;;;24.70;99.90;;;;;;5020093;28;20180;-76
2021/08/13 03:58:04;;;;;;;5.63;3.47;;;24.60;99.90;;;;;;5020842;28;20196;-76
2021/08/13 04:00:31;;;;;;;3.77;2.93;;;24.50;99.90;;;;;;5036212;28;20192;-75
2021/08/13 04:02:57;;;;;;;3.40;3.10;;;24.50;99.90;;;;;;5012066;28;20679;-76
2021/08/13 04:05:23;;;;;;;6.53;3.63;;;24.50;99.90;;;;;;5028001;28;20191;-76
2021/08/13 04:07:50;;;;;;;7.63;3.53;;;24.50;99.90;;;;;;5029911;28;20573;-74
2021/08/13 04:10:17;;;;;;;4.50;3.40;;;24.50;99.90;;;;;;5026165;28;20188;-76
2021/08/13 04:12:43;;;;;;;5.80;2.87;;;24.50;99.90;;;;;;5005475;28;20204;-77
2021/08/13 04:15:10;;;;;;;4.30;3.30;;;24.50;99.90;;;;;;5029852;28;20202;-77
2021/08/13 04:17:36;;;;;;;5.13;2.93;;;24.50;99.90;;;;;;5034607;28;20184;-76
2021/08/13 04:20:05;;;;;;;3.90;3.10;;;24.50;99.90;;;;;;5021579;28;20197;-77
2021/08/13 04:22:35;;;;;;;6.57;3.17;;;24.50;99.90;;;;;;5024168;28;20299;-77
2021/08/13 04:25:05;;;;;;;5.47;3.40;;;24.50;99.90;;;;;;5021916;28;20220;-77
2021/08/13 04:27:31;;;;;;;6.10;3.20;;;24.50;99.90;;;;;;5027953;28;20221;-77
2021/08/13 04:30:00;;;;;;;5.00;3.13;;;24.50;99.90;;;;;;5026200;28;20681;-77
2021/08/13 04:32:26;;;;;;;6.27;3.47;;;24.50;99.90;;;;;;5022855;28;20723;-77
2021/08/13 04:34:53;;;;;;;8.03;3.23;;;24.50;99.90;;;;;;5005646;28;20506;-77
2021/08/13 04:37:19;;;;;;;5.83;3.03;;;24.50;99.90;;;;;;5012465;28;20205;-77
2021/08/13 04:39:45;;;;;;;7.57;3.00;;;24.50;99.90;;;;;;5022064;28;20188;-76
2021/08/13 04:42:11;;;;;;;4.90;2.93;;;24.50;99.90;;;;;;5021953;28;20180;-77
2021/08/13 04:44:38;;;;;;;4.57;3.13;;;24.50;99.90;;;;;;5006474;28;20275;-76
2021/08/13 04:47:04;;;;;;;5.13;3.47;;;24.50;99.90;;;;;;5024802;28;20204;-75
2021/08/13 04:49:33;;;;;;;3.87;3.07;;;24.70;99.90;;;;;;5014878;28;20188;-76
2021/08/13 04:52:04;;;;;;;5.40;3.25;;;24.80;99.90;;;;;;5010996;28;20184;-75
2021/08/13 04:54:31;;;;;;;9.52;3.35;;;24.80;99.90;;;;;;5010164;28;20176;-76
2021/08/13 04:57:01;;;;;;;6.57;3.10;;;24.90;99.90;;;;;;5027895;28;20211;-76
2021/08/13 04:59:34;;;;;;;5.57;3.30;;;25.00;99.90;;;;;;5012062;28;20194;-75
2021/08/13 05:02:01;;;;;;;5.88;3.95;;;25.10;99.90;;;;;;5024191;28;20254;-76
2021/08/13 05:04:27;;;;;;;4.53;3.22;;;25.20;99.90;;;;;;5021958;28;20206;-76
2021/08/13 05:06:54;;;;;;;5.18;3.25;;;25.20;99.90;;;;;;5007073;28;20209;-75
2021/08/13 05:09:22;;;;;;;7.10;3.30;;;25.30;99.90;;;;;;5006290;28;20200;-74
2021/08/13 05:11:48;;;;;;;6.88;3.20;;;25.30;99.90;;;;;;5023814;28;20180;-76
2021/08/13 05:14:16;;;;;;;4.47;3.58;;;25.40;99.90;;;;;;5013116;28;20191;-76
2021/08/13 05:16:42;;;;;;;11.48;4.03;;;25.40;99.90;;;;;;5024369;28;20196;-76
2021/08/13 05:19:08;;;;;;;5.45;3.50;;;25.50;99.90;;;;;;5020538;28;20215;-76
2021/08/13 05:21:40;;;;;;;5.43;3.20;;;25.40;99.90;;;;;;5020320;28;20360;-75
2021/08/13 05:24:07;;;;;;;6.35;3.20;;;25.50;99.90;;;;;;5021710;28;20198;-74
2021/08/13 05:26:40;;;;;;;3.97;3.30;;;25.50;99.90;;;;;;5010990;28;20204;-76
2021/08/13 05:29:07;;;;;;;6.68;3.40;;;25.60;99.90;;;;;;5030651;28;20274;-76
2021/08/13 05:31:34;;;;;;;7.50;3.72;;;25.60;99.90;;;;;;5011634;28;20184;-76
2021/08/13 05:34:03;;;;;;;6.53;3.35;;;25.60;99.90;;;;;;5025241;28;20176;-76
2021/08/13 05:36:30;;;;;;;4.63;3.22;;;25.60;99.90;;;;;;5024720;28;20188;-74
2021/08/13 05:38:56;;;;;;;6.38;3.72;;;25.60;99.90;;;;;;5021997;28;20180;-76
2021/08/13 05:41:22;;;;;;;8.00;3.50;;;25.70;99.90;;;;;;5021530;28;20189;-75
2021/08/13 05:43:48;;;;;;;7.25;3.90;;;25.80;99.90;;;;;;5030412;28;20196;-77
2021/08/13 05:46:15;;;;;;;6.90;3.50;;;26.00;99.90;;;;;;5026732;28;20289;-75
2021/08/13 05:48:41;;;;;;;4.97;3.38;;;26.00;99.90;;;;;;5011893;28;20181;-76
2021/08/13 05:51:09;;;;;;;5.07;3.10;;;26.00;99.90;;;;;;5000654;28;20193;-77
2021/08/13 05:53:36;;;;;;;8.00;3.00;;;26.10;99.90;;;;;;5018856;28;20274;-77
2021/08/13 05:56:02;;;;;;;3.95;2.75;;;26.10;99.90;;;;;;5011785;28;20647;-78
2021/08/13 05:58:29;;;;;;;5.65;3.13;;;26.10;99.90;;;;;;5029708;28;20184;-77
2021/08/13 06:00:56;;;;;;;5.25;2.97;;;26.10;99.90;;;;;;5020090;28;20212;-78
2021/08/13 06:03:22;;;;;;;6.25;3.17;;;26.10;99.90;;;;;;5020929;28;20184;-76
2021/08/13 06:05:48;;;;;;;4.55;3.15;;;26.20;99.90;;;;;;5026738;28;20263;-78
2021/08/13 06:08:15;;;;;;;8.18;3.30;;;26.30;99.90;;;;;;5029960;28;20179;-76
2021/08/13 06:10:46;;;;;;;7.88;3.10;;;26.30;99.90;;;;;;5026345;28;20208;-77
2021/08/13 06:13:15;;;;;;;5.75;3.30;;;26.40;99.90;;;;;;5030698;28;20292;-77
2021/08/13 06:15:42;;;;;;;9.20;3.10;;;26.60;99.90;;;;;;5026686;28;20185;-78
2021/08/13 06:18:08;;;;;;;7.93;3.20;;;26.70;99.90;;;;;;5025375;28;20188;-73
2021/08/13 06:20:39;;;;;;;8.25;3.00;;;26.80;99.90;;;;;;5023730;28;20188;-76
2021/08/13 06:23:05;;;;;;;5.30;3.50;;;27.00;99.90;;;;;;5003676;28;20644;-73
2021/08/13 06:25:32;;;;;;;7.75;3.15;;;27.00;99.90;;;;;;5022384;28;20220;-75
2021/08/13 06:27:59;;;;;;;6.35;3.03;;;27.10;99.90;;;;;;5026957;28;20665;-76
2021/08/13 06:30:25;;;;;;;6.15;2.80;;;27.30;99.90;;;;;;5023578;28;20494;-75
2021/08/13 06:32:53;;;;;;;11.55;3.33;;;27.40;99.90;;;;;;5015129;28;20242;-74
2021/08/13 06:35:20;;;;;;;4.65;3.15;;;27.40;99.90;;;;;;5013075;28;20188;-74
2021/08/13 06:37:52;;;;;;;3.80;2.78;;;27.50;99.90;;;;;;5013032;28;20188;-74
2021/08/13 06:40:19;;;;;;;8.65;2.90;;;27.50;99.90;;;;;;5012875;28;20187;-74
2021/08/13 06:42:47;;;;;;;6.75;2.90;;;27.50;99.90;;;;;;5023647;28;20184;-74
2021/08/13 06:45:17;;;;;;;4.05;2.70;;;27.60;99.90;;;;;;5020886;28;20192;-74
2021/08/13 06:47:45;;;;;;;5.93;2.85;;;27.60;99.90;;;;;;5017144;28;20370;-73
2021/08/13 06:50:14;;;;;;;4.10;3.00;;;27.60;99.90;;;;;;5018926;28;20188;-73
2021/08/13 06:52:42;;;;;;;4.75;3.00;;;27.70;99.90;;;;;;5035060;28;20188;-73
2021/08/13 06:55:10;;;;;;;5.15;3.17;;;27.80;99.90;;;;;;5025610;28;20172;-73
2021/08/13 06:57:40;;;;;;;5.43;3.20;;;27.90;99.90;;;;;;5001211;28;20918;-73
2021/08/13 07:00:12;;;;;;;3.67;2.97;;;28.00;99.90;;;;;;5009739;28;20712;-74
2021/08/13 07:02:40;;;;;;;8.75;3.35;;;28.10;99.90;;;;;;5017472;28;20188;-74
2021/08/13 07:05:09;;;;;;;5.28;3.22;;;28.30;99.90;;;;;;5021182;28;20193;-74
2021/08/13 07:07:35;;;;;;;7.85;2.90;;;28.40;99.90;;;;;;5029123;28;20204;-74
2021/08/13 07:10:11;;;;;;;7.65;3.22;;;28.50;99.90;;;;;;5014995;28;20608;-73
2021/08/13 07:12:39;;;;;;;5.30;3.65;;;28.50;99.90;;;;;;5020011;28;20191;-73
2021/08/13 07:15:08;;;;;;;7.57;3.30;;;28.50;99.90;;;;;;5024835;28;20213;-74
2021/08/13 07:17:36;;;;;;;7.00;3.13;;;28.60;99.90;;;;;;5004552;28;20196;-74
2021/08/13 07:20:05;;;;;;;10.88;3.33;;;28.60;99.90;;;;;;5009152;28;20196;-76
2021/08/13 07:22:33;;;;;;;6.45;3.25;;;28.70;99.90;;;;;;5019974;28;20243;-74
2021/08/13 07:25:00;;;;;;;5.18;2.97;;;28.70;99.90;;;;;;5023075;28;20239;-76
2021/08/13 07:27:29;;;;;;;4.75;3.00;;;28.80;99.90;;;;;;4993748;28;20204;-75
2021/08/13 07:29:58;;;;;;;7.22;2.92;;;28.90;99.90;;;;;;5009544;28;20187;-72
2021/08/13 07:32:25;;;;;;;5.22;3.28;;;28.90;99.90;;;;;;5009432;28;20195;-76
2021/08/13 07:34:52;;;;;;;4.55;2.97;;;29.00;99.90;;;;;;5043114;28;20282;-75
2021/08/13 07:37:19;;;;;;;7.40;3.30;;;29.00;99.90;;;;;;4972742;28;20246;-75
2021/08/13 07:39:48;;;;;;;4.07;3.15;;;29.10;99.90;;;;;;5011966;28;20211;-75
2021/08/13 07:42:18;;;;;;;7.18;3.70;;;29.20;99.90;;;;;;5025464;28;20193;-75
2021/08/13 07:44:45;;;;;;;8.52;3.10;;;29.10;99.90;;;;;;5024366;28;20192;-75
2021/08/13 07:47:13;;;;;;;5.40;3.20;;;29.20;99.90;;;;;;5005712;28;20311;-75
2021/08/13 07:49:40;;;;;;;7.75;3.08;;;29.10;99.90;;;;;;5023385;28;20187;-76
2021/08/13 07:52:06;;;;;;;8.73;3.42;;;29.20;99.90;;;;;;5022511;28;20185;-77
2021/08/13 07:54:33;;;;;;;5.63;3.40;;;29.20;99.90;;;;;;4992244;28;20192;-77
2021/08/13 07:57:00;;;;;;;3.85;3.10;;;29.30;99.90;;;;;;5028934;28;20509;-77
2021/08/13 07:59:26;;;;;;;5.80;3.42;;;29.30;99.90;;;;;;5040689;28;20188;-77
2021/08/13 08:01:54;;;;;;;4.75;3.00;;;29.40;99.90;;;;;;5012411;28;20625;-76
2021/08/13 08:04:21;;;;;;;7.32;2.90;;;29.40;99.90;;;;;;5023555;28;20550;-76
2021/08/13 08:06:56;;;;;;;5.20;3.00;;;29.50;99.90;;;;;;5023276;28;20211;-77
2021/08/13 08:09:41;;;;;;;4.40;3.00;;;29.40;99.90;;;;;;5024609;28;20217;-77
2021/08/13 08:12:08;;;;;;;7.25;3.15;;;29.70;99.90;;;;;;5019947;28;20222;-75
2021/08/13 08:14:45;;;;;;;6.18;3.47;;;29.90;99.90;;;;;;5022171;28;20219;-75
2021/08/13 08:17:11;;;;;;;7.93;3.47;;;29.80;99.90;;;;;;5016671;28;20193;-76
2021/08/13 08:19:40;;;;;;;7.95;3.20;;;30.00;99.90;;;;;;5014735;28;20239;-76
2021/08/13 08:22:07;;;;;;;3.30;2.78;;;30.00;99.90;;;;;;5022304;28;20645;-76
2021/08/13 08:24:33;;;;;;;6.15;2.97;;;30.10;99.90;;;;;;5008272;28;20216;-76
2021/08/13 08:27:09;;;;;;;6.25;3.17;;;30.00;99.90;;;;;;5019650;28;20211;-76
2021/08/13 08:29:39;;;;;;;4.45;2.90;;;30.30;99.90;;;;;;5015169;28;20192;-76
2021/08/13 08:32:06;;;;;;;5.30;3.10;;;30.50;99.90;;;;;;5019163;28;20203;-76
2021/08/13 08:34:41;;;;;;;7.40;3.30;;;30.40;99.90;;;;;;5018770;28;20227;-76
2021/08/13 08:37:12;;;;;;;5.03;2.88;;;30.50;99.90;;;;;;5032663;28;20195;-75
2021/08/13 08:39:45;;;;;;;4.03;2.75;;;30.70;99.90;;;;;;5015949;28;20203;-74
2021/08/13 08:42:22;;;;;;;3.45;2.40;;;30.80;99.90;;;;;;5023529;28;20281;-74
2021/08/13 08:44:49;;;;;;;5.70;3.25;;;30.80;99.90;;;;;;5023525;28;20191;-74
2021/08/13 08:47:19;;;;;;;4.82;2.80;;;30.90;99.90;;;;;;5018418;28;20236;-74
2021/08/13 08:49:50;;;;;;;5.32;3.00;;;30.80;99.90;;;;;;5002364;28;20196;-73
2021/08/13 08:52:19;;;;;;;6.05;3.08;;;30.90;99.90;;;;;;5025510;28;20238;-74
2021/08/13 08:54:47;;;;;;;4.78;2.95;;;30.80;99.90;;;;;;5032799;28;20208;-73
2021/08/13 08:57:15;;;;;;;5.15;2.65;;;30.90;99.90;;;;;;5023278;28;20189;-74
2021/08/13 08:59:43;;;;;;;5.28;2.88;;;30.90;99.90;;;;;;5008942;28;20240;-74
2021/08/13 09:02:10;;;;;;;4.38;3.10;;;31.10;99.90;;;;;;5026773;28;20196;-73
2021/08/13 09:04:36;;;;;;;6.32;3.10;;;31.10;98.80;;;;;;5023724;28;20522;-73
2021/08/13 09:07:05;;;;;;;4.90;3.08;;;31.20;93.40;;;;;;5016364;28;20766;-73
2021/08/13 09:09:31;;;;;;;6.15;3.10;;;31.20;94.50;;;;;;5009847;28;20275;-73
2021/08/13 09:11:59;;;;;;;6.50;3.50;;;31.40;94.40;;;;;;5019559;28;20272;-74
2021/08/13 09:14:41;;;;;;;5.43;3.03;;;31.50;93.50;;;;;;5031519;28;20205;-73
2021/08/13 09:17:08;;;;;;;10.73;3.22;;;31.60;91.70;;;;;;5017617;28;20656;-75
2021/08/13 09:19:50;;;;;;;4.50;3.05;;;31.80;93.60;;;;;;5018444;28;20275;-76
2021/08/13 09:22:21;;;;;;;6.00;2.80;;;32.00;92.80;;;;;;5015353;28;20247;-77
2021/08/13 09:24:55;;;;;;;5.88;3.20;;;31.80;93.80;;;;;;5018536;28;20180;-76
2021/08/13 09:27:29;;;;;;;7.38;2.80;;;31.60;91.70;;;;;;5016151;28;20204;-76
2021/08/13 09:30:17;;;;;;;6.18;2.88;;;31.60;91.90;;;;;;5022187;28;20218;-76
2021/08/13 09:32:56;;;;;;;4.32;2.80;;;31.70;91.00;;;;;;5024082;28;20263;-75
2021/08/13 09:35:42;;;;;;;6.80;3.13;;;32.00;91.30;;;;;;5021736;28;20205;-75
2021/08/13 09:38:14;;;;;;;8.82;3.13;;;32.60;91.30;;;;;;5017725;28;20841;-76
2021/08/13 09:40:45;;;;;;;4.00;2.85;;;33.00;90.40;;;;;;5023982;28;20663;-76
2021/08/13 09:43:13;;;;;;;4.15;2.65;;;33.00;90.40;;;;;;5020420;28;20679;-76
2021/08/13 09:45:43;;;;;;;4.32;2.80;;;33.20;89.30;;;;;;5022220;28;20196;-75
2021/08/13 10:00:12;;;;;;;3.78;2.80;;;32.90;88.30;;;;;;5026921;28;20581;-73
2021/08/13 10:02:41;;;;;;;5.07;2.70;;;32.70;86.10;;;;;;5027577;28;20199;-72
2021/08/13 10:05:25;;;;;;;4.25;2.80;;;32.50;87.00;;;;;;5023788;28;20188;-73
2021/08/13 10:08:00;;;;;;;7.82;2.55;;;32.30;85.20;;;;;;5017545;28;20580;-72
2021/08/13 10:10:34;;;;;;;6.82;2.67;;;32.10;84.40;;;;;;5027916;28;20179;-73
2021/08/13 10:13:02;;;;;;;7.80;2.60;;;31.90;85.60;;;;;;5020018;28;20200;-72
2021/08/13 10:15:43;;;;;;;6.57;3.17;;;31.90;83.30;;;;;;5018517;28;20241;-74
2021/08/13 10:18:18;;;;;;;6.82;2.75;;;31.70;82.70;;;;;;4998864;28;20754;-74
2021/08/13 10:20:48;;;;;;;4.18;2.80;;;31.60;82.50;;;;;;4998247;28;20695;-73
2021/08/13 10:23:15;;;;;;;3.38;2.53;;;31.40;87.80;;;;;;5016579;28;20626;-73
2021/08/13 10:25:44;;;;;;;7.25;3.72;;;31.10;89.30;;;;;;5043111;28;20188;-72
2021/08/13 10:28:10;;;;;;;5.68;3.33;;;31.00;90.80;;;;;;5009737;28;20215;-73
2021/08/13 10:30:37;;;;;;;6.65;2.95;;;30.80;90.90;;;;;;5019843;28;20189;-75
2021/08/13 10:33:07;;;;;;;8.00;3.30;;;30.80;90.90;;;;;;5000844;28;20203;-74
2021/08/13 10:35:43;;;;;;;7.95;3.50;;;30.70;91.20;;;;;;5016502;28;20192;-73
2021/08/13 10:38:11;;;;;;;8.73;3.35;;;30.70;91.80;;;;;;5017090;28;20207;-74
2021/08/13 10:40:42;;;;;;;4.07;3.03;;;30.60;91.10;;;;;;5030002;28;20189;-73
2021/08/13 10:43:10;;;;;;;4.82;2.85;;;30.60;90.80;;;;;;5016237;28;20279;-74
2021/08/13 10:45:40;;;;;;;3.60;3.13;;;30.50;91.80;;;;;;5030220;28;20204;-72
2021/08/13 10:48:22;;;;;;;7.50;3.30;;;30.40;92.00;;;;;;5014007;28;20362;-73
2021/08/13 10:50:55;;;;;;;3.97;2.80;;;30.50;91.30;;;;;;5016848;28;20185;-73
2021/08/13 10:53:34;;;;;;;5.32;3.38;;;30.70;89.80;;;;;;5017950;28;20837;-73
2021/08/13 10:56:07;;;;;;;9.27;3.10;;;30.90;91.00;;;;;;5013048;28;20188;-75
2021/08/13 10:58:36;;;;;;;3.97;3.08;;;30.90;90.00;;;;;;5020252;28;20223;-73
2021/08/13 11:01:16;;;;;;;4.63;2.58;;;30.70;91.60;;;;;;4989182;28;20232;-74
2021/08/13 11:04:04;;;;;;;6.22;3.25;;;30.80;92.20;;;;;;5005975;28;20193;-74
2021/08/13 11:06:39;;;;;;;5.35;2.83;;;30.80;91.20;;;;;;5022585;28;20283;-73
2021/08/13 11:09:33;;;;;;;7.22;3.00;;;30.70;92.20;;;;;;5020341;28;20216;-75
2021/08/13 11:12:06;;;;;;;4.28;2.53;;;30.90;87.40;;;;;;5009026;28;20204;-74
2021/08/13 11:14:47;;;;;;;3.08;2.70;;;31.00;90.80;;;;;;5021471;28;20316;-73
2021/08/13 11:17:45;;;;;;;5.10;3.10;;;30.90;91.90;;;;;;5006865;28;20284;-73
2021/08/13 11:20:15;;;;;;;5.53;3.40;;;30.90;90.20;;;;;;5015594;28;20244;-74
2021/08/13 11:23:04;;;;;;;5.25;3.75;;;30.90;90.50;;;;;;5008487;28;20189;-73
2021/08/13 11:25:52;;;;;;;4.75;3.53;;;30.90;90.50;;;;;;4988180;28;20291;-74
2021/08/13 11:28:30;;;;;;;6.68;3.42;;;31.20;90.40;;;;;;4998641;28;21052;-75
2021/08/13 11:31:01;;;;;;;6.60;3.05;;;31.30;90.40;;;;;;5019120;28;20192;-73
2021/08/13 11:33:37;;;;;;;4.93;3.30;;;31.60;88.20;;;;;;5004790;28;20177;-74
2021/08/13 11:36:07;;;;;;;4.85;3.33;;;31.80;88.80;;;;;;4988437;28;20542;-73
2021/08/13 11:38:47;;;;;;;6.93;2.90;;;31.70;89.00;;;;;;5005069;28;20187;-73
2021/08/13 11:41:27;;;;;;;4.40;3.30;;;32.00;87.10;;;;;;4986849;28;20727;-73
2021/08/13 11:44:00;;;;;;;6.18;3.08;;;31.80;89.00;;;;;;5005358;28;20199;-74
2021/08/13 11:46:36;;;;;;;3.53;2.78;;;31.60;84.90;;;;;;5009475;28;20197;-73
2021/08/13 11:49:06;;;;;;;4.28;3.00;;;32.00;83.20;;;;;;5005342;28;20290;-71
2021/08/13 11:51:37;;;;;;;7.63;3.33;;;32.40;84.90;;;;;;4991002;28;20192;-72
2021/08/13 11:54:23;;;;;;;4.85;3.15;;;32.20;88.90;;;;;;4987118;28;20188;-71
2021/08/13 11:56:50;;;;;;;6.03;3.40;;;31.90;86.40;;;;;;5003367;28;20265;-71
2021/08/13 11:59:21;;;;;;;7.68;3.20;;;32.20;86.10;;;;;;4982903;28;20192;-72
2021/08/13 12:01:51;;;;;;;4.60;3.33;;;32.20;86.60;;;;;;4986922;28;20189;-72
2021/08/13 12:04:25;;;;;;;4.05;3.25;;;32.10;85.40;;;;;;5007515;28;20185;-72
2021/08/13 12:07:09;;;;;;;6.80;3.10;;;31.90;88.60;;;;;;5004210;28;21295;-72
2021/08/13 12:09:44;;;;;;;4.70;3.25;;;31.90;83.90;;;;;;4988492;28;20200;-71
2021/08/13 12:12:16;;;;;;;5.90;2.97;;;32.40;82.20;;;;;;4987949;28;20256;-70
2021/08/13 12:14:58;;;;;;;6.15;3.13;;;33.00;82.10;;;;;;4987314;28;20272;-71
2021/08/13 12:17:24;;;;;;;9.60;3.50;;;33.10;79.80;;;;;;4986533;28;20192;-72
2021/08/13 12:20:01;;;;;;;9.82;3.63;;;32.90;83.40;;;;;;5000954;28;20288;-70
2021/08/13 12:22:39;;;;;;;4.13;3.35;;;32.60;79.80;;;;;;5000836;28;20201;-70
2021/08/13 12:25:11;;;;;;;6.43;3.70;;;32.50;81.20;;;;;;5017238;28;20216;-71
2021/08/13 12:27:41;;;;;;;5.60;3.35;;;32.30;83.70;;;;;;4999013;28;20209;-73
2021/08/13 12:30:23;;;;;;;5.05;3.58;;;32.20;82.50;;;;;;4997253;28;20185;-71
2021/08/13 12:32:53;;;;;;;8.52;3.53;;;31.90;84.40;;;;;;4996922;28;20507;-71
2021/08/13 12:35:22;;;;;;;5.22;3.53;;;31.70;85.00;;;;;;5004301;28;20280;-72
2021/08/13 12:37:48;;;;;;;6.00;3.20;;;31.70;84.20;;;;;;5002780;28;20196;-72
2021/08/13 12:40:16;;;;;;;4.95;2.72;;;31.60;85.50;;;;;;5004406;28;20669;-71
2021/08/13 12:42:51;;;;;;;4.88;3.50;;;31.60;83.10;;;;;;5003007;28;20675;-71
2021/08/13 12:45:21;;;;;;;4.82;2.83;;;31.60;86.30;;;;;;5004171;28;20222;-72
2021/08/13 12:47:51;;;;;;;4.63;2.35;;;31.50;86.20;;;;;;4999077;28;20369;-71
2021/08/13 12:50:22;;;;;;;4.15;2.40;;;31.50;81.10;;;;;;4983487;28;20185;-71
2021/08/13 12:53:10;;;;;;;5.38;2.80;;;31.50;85.00;;;;;;4987018;28;20181;-72
2021/08/13 12:55:44;;;;;;;6.43;3.33;;;31.30;80.70;;;;;;5003779;28;20185;-73
2021/08/13 12:58:35;;;;;;;4.55;2.90;;;31.20;85.20;;;;;;5001973;28;20196;-72
2021/08/13 13:01:28;;;;;;;3.60;2.70;;;31.20;81.60;;;;;;4997251;28;20197;-72
2021/08/13 13:04:16;;;;;;;6.50;2.90;;;31.40;81.60;;;;;;4998332;28;20646;-71
2021/08/13 13:06:44;;;;;;;5.25;2.80;;;31.20;87.40;;;;;;4987678;28;20652;-71
2021/08/13 13:09:12;;;;;;;3.38;2.80;;;31.10;84.70;;;;;;5002313;28;20736;-71
2021/08/13 13:11:39;;;;;;;3.33;2.65;;;31.20;85.00;;;;;;5001802;28;20200;-71
2021/08/13 13:14:05;;;;;;;5.15;2.78;;;31.40;83.60;;;;;;4999756;28;20189;-72